sensor_id;sensor_type;location;lat;lon;timestamp;P1;durP1;ratioP1;P2;durP2;ratioP2
12689;SDS011;6409;56.294;14.480;2023-06-22T00:02:17;0.30;;;0.30;;
12689;SDS011;6409;56.294;14.480;2023-06-22T00:04:44;0.20;;;0.20;;
12689;SDS011;6409;56.294;14.480;2023-06-22T00:07:11;0.30;;;0.30;;
12689;SDS011;6409;56.294;14.480;2023-06-22T00:09:38;0.20;;;0.20;;
12689;SDS011;6409;56.294;14.480;2023-06-22T00:12:05;0.20;;;0.20;;
12689;SDS011;6409;56.294;14.480;2023-06-22T00:14:34;0.30;;;0.30;;
12689;SDS011;6409;56.294;14.480;2023-06-22T00:17:01;0.30;;;0.30;;
12689;SDS011;6409;56.294;14.480;2023-06-22T00:19:28;0.20;;;0.20;;
12689;SDS011;6409;56.294;14.480;2023-06-22T00:21:55;0.20;;;0.20;;
12689;SDS011;6409;56.294;14.480;2023-06-22T00:24:25;0.30;;;0.30;;
12689;SDS011;6409;56.294;14.480;2023-06-22T00:26:52;0.20;;;0.20;;
12689;SDS011;6409;56.294;14.480;2023-06-22T00:29:19;0.30;;;0.30;;
12689;SDS011;6409;56.294;14.480;2023-06-22T00:31:47;0.20;;;0.20;;
12689;SDS011;6409;56.294;14.480;2023-06-22T00:34:14;0.20;;;0.20;;
12689;SDS011;6409;56.294;14.480;2023-06-22T00:36:41;0.20;;;0.20;;
12689;SDS011;6409;56.294;14.480;2023-06-22T00:39:08;0.27;;;0.27;;
12689;SDS011;6409;56.294;14.480;2023-06-22T00:41:36;0.20;;;0.20;;
12689;SDS011;6409;56.294;14.480;2023-06-22T00:44:02;0.20;;;0.20;;
12689;SDS011;6409;56.294;14.480;2023-06-22T00:46:30;0.20;;;0.20;;
12689;SDS011;6409;56.294;14.480;2023-06-22T00:48:58;0.30;;;0.30;;
12689;SDS011;6409;56.294;14.480;2023-06-22T00:51:26;0.20;;;0.20;;
12689;SDS011;6409;56.294;14.480;2023-06-22T00:53:52;0.20;;;0.20;;
12689;SDS011;6409;56.294;14.480;2023-06-22T00:56:19;0.20;;;0.20;;
12689;SDS011;6409;56.294;14.480;2023-06-22T00:58:49;0.30;;;0.30;;
12689;SDS011;6409;56.294;14.480;2023-06-22T01:01:18;0.20;;;0.20;;
12689;SDS011;6409;56.294;14.480;2023-06-22T01:03:48;0.30;;;0.30;;
12689;SDS011;6409;56.294;14.480;2023-06-22T01:06:19;0.20;;;0.20;;
12689;SDS011;6409;56.294;14.480;2023-06-22T01:08:53;0.20;;;0.20;;
12689;SDS011;6409;56.294;14.480;2023-06-22T01:11:28;0.20;;;0.20;;
12689;SDS011;6409;56.294;14.480;2023-06-22T01:14:00;0.20;;;0.20;;
12689;SDS011;6409;56.294;14.480;2023-06-22T01:16:30;0.20;;;0.20;;
12689;SDS011;6409;56.294;14.480;2023-06-22T01:19:00;0.30;;;0.30;;
12689;SDS011;6409;56.294;14.480;2023-06-22T01:21:32;0.20;;;0.20;;
12689;SDS011;6409;56.294;14.480;2023-06-22T01:24:02;0.20;;;0.20;;
12689;SDS011;6409;56.294;14.480;2023-06-22T01:26:37;0.30;;;0.30;;
12689;SDS011;6409;56.294;14.480;2023-06-22T01:29:08;0.30;;;0.30;;
12689;SDS011;6409;56.294;14.480;2023-06-22T01:31:38;0.30;;;0.30;;
12689;SDS011;6409;56.294;14.480;2023-06-22T01:34:06;0.20;;;0.20;;
12689;SDS011;6409;56.294;14.480;2023-06-22T01:36:34;0.20;;;0.20;;
12689;SDS011;6409;56.294;14.480;2023-06-22T01:39:02;0.20;;;0.20;;
12689;SDS011;6409;56.294;14.480;2023-06-22T01:41:29;0.20;;;0.20;;
12689;SDS011;6409;56.294;14.480;2023-06-22T01:44:01;0.20;;;0.20;;
12689;SDS011;6409;56.294;14.480;2023-06-22T01:46:31;0.20;;;0.20;;
12689;SDS011;6409;56.294;14.480;2023-06-22T01:48:58;0.30;;;0.30;;
12689;SDS011;6409;56.294;14.480;2023-06-22T01:51:25;0.20;;;0.20;;
12689;SDS011;6409;56.294;14.480;2023-06-22T01:53:52;0.20;;;0.20;;
12689;SDS011;6409;56.294;14.480;2023-06-22T01:56:19;0.30;;;0.30;;
12689;SDS011;6409;56.294;14.480;2023-06-22T01:58:47;0.20;;;0.20;;
12689;SDS011;6409;56.294;14.480;2023-06-22T02:01:18;0.20;;;0.20;;
12689;SDS011;6409;56.294;14.480;2023-06-22T02:03:53;0.20;;;0.20;;
12689;SDS011;6409;56.294;14.480;2023-06-22T02:06:27;0.30;;;0.30;;
12689;SDS011;6409;56.294;14.480;2023-06-22T02:09:01;0.30;;;0.30;;
12689;SDS011;6409;56.294;14.480;2023-06-22T02:11:29;0.30;;;0.30;;
12689;SDS011;6409;56.294;14.480;2023-06-22T02:13:57;0.30;;;0.30;;
12689;SDS011;6409;56.294;14.480;2023-06-22T02:16:24;0.30;;;0.30;;
12689;SDS011;6409;56.294;14.480;2023-06-22T02:18:56;0.30;;;0.30;;
12689;SDS011;6409;56.294;14.480;2023-06-22T02:21:28;0.30;;;0.30;;
12689;SDS011;6409;56.294;14.480;2023-06-22T02:23:56;0.30;;;0.30;;
12689;SDS011;6409;56.294;14.480;2023-06-22T02:26:22;0.20;;;0.20;;
12689;SDS011;6409;56.294;14.480;2023-06-22T02:28:50;0.20;;;0.20;;
12689;SDS011;6409;56.294;14.480;2023-06-22T02:31:17;0.20;;;0.20;;
12689;SDS011;6409;56.294;14.480;2023-06-22T02:33:45;0.20;;;0.20;;
12689;SDS011;6409;56.294;14.480;2023-06-22T02:36:14;0.20;;;0.20;;
12689;SDS011;6409;56.294;14.480;2023-06-22T02:38:41;0.20;;;0.20;;
12689;SDS011;6409;56.294;14.480;2023-06-22T02:41:13;0.20;;;0.20;;
12689;SDS011;6409;56.294;14.480;2023-06-22T02:43:43;0.27;;;0.27;;
12689;SDS011;6409;56.294;14.480;2023-06-22T02:46:10;0.20;;;0.20;;
12689;SDS011;6409;56.294;14.480;2023-06-22T02:48:38;0.20;;;0.20;;
12689;SDS011;6409;56.294;14.480;2023-06-22T02:51:05;0.20;;;0.20;;
12689;SDS011;6409;56.294;14.480;2023-06-22T02:53:33;0.20;;;0.20;;
12689;SDS011;6409;56.294;14.480;2023-06-22T02:56:01;0.20;;;0.20;;
12689;SDS011;6409;56.294;14.480;2023-06-22T02:58:30;0.20;;;0.20;;
12689;SDS011;6409;56.294;14.480;2023-06-22T03:00:58;0.20;;;0.20;;
12689;SDS011;6409;56.294;14.480;2023-06-22T03:03:29;0.20;;;0.20;;
12689;SDS011;6409;56.294;14.480;2023-06-22T03:05:56;0.30;;;0.30;;
12689;SDS011;6409;56.294;14.480;2023-06-22T03:08:23;0.20;;;0.20;;
12689;SDS011;6409;56.294;14.480;2023-06-22T03:10:51;0.20;;;0.20;;
12689;SDS011;6409;56.294;14.480;2023-06-22T03:13:18;0.20;;;0.20;;
12689;SDS011;6409;56.294;14.480;2023-06-22T03:15:45;0.20;;;0.20;;
12689;SDS011;6409;56.294;14.480;2023-06-22T03:18:13;0.20;;;0.20;;
12689;SDS011;6409;56.294;14.480;2023-06-22T03:20:41;0.20;;;0.20;;
12689;SDS011;6409;56.294;14.480;2023-06-22T03:23:08;0.20;;;0.20;;
12689;SDS011;6409;56.294;14.480;2023-06-22T03:25:35;0.30;;;0.30;;
12689;SDS011;6409;56.294;14.480;2023-06-22T03:28:03;0.30;;;0.30;;
12689;SDS011;6409;56.294;14.480;2023-06-22T03:30:30;0.30;;;0.30;;
12689;SDS011;6409;56.294;14.480;2023-06-22T03:32:57;0.20;;;0.20;;
12689;SDS011;6409;56.294;14.480;2023-06-22T03:35:24;0.20;;;0.20;;
12689;SDS011;6409;56.294;14.480;2023-06-22T03:37:51;0.20;;;0.20;;
12689;SDS011;6409;56.294;14.480;2023-06-22T03:40:18;0.20;;;0.20;;
12689;SDS011;6409;56.294;14.480;2023-06-22T03:42:45;0.20;;;0.20;;
12689;SDS011;6409;56.294;14.480;2023-06-22T03:45:13;0.20;;;0.20;;
12689;SDS011;6409;56.294;14.480;2023-06-22T03:47:40;0.20;;;0.20;;
12689;SDS011;6409;56.294;14.480;2023-06-22T03:50:08;0.30;;;0.30;;
12689;SDS011;6409;56.294;14.480;2023-06-22T03:52:35;0.30;;;0.30;;
12689;SDS011;6409;56.294;14.480;2023-06-22T03:55:02;0.30;;;0.30;;
12689;SDS011;6409;56.294;14.480;2023-06-22T03:57:29;0.30;;;0.30;;
12689;SDS011;6409;56.294;14.480;2023-06-22T03:59:56;0.30;;;0.30;;
12689;SDS011;6409;56.294;14.480;2023-06-22T04:02:25;0.20;;;0.20;;
12689;SDS011;6409;56.294;14.480;2023-06-22T04:04:52;0.30;;;0.30;;
12689;SDS011;6409;56.294;14.480;2023-06-22T04:07:19;0.30;;;0.30;;
12689;SDS011;6409;56.294;14.480;2023-06-22T04:09:46;0.30;;;0.30;;
12689;SDS011;6409;56.294;14.480;2023-06-22T04:12:13;0.30;;;0.30;;
12689;SDS011;6409;56.294;14.480;2023-06-22T04:14:40;0.30;;;0.30;;
12689;SDS011;6409;56.294;14.480;2023-06-22T04:17:06;0.30;;;0.30;;
12689;SDS011;6409;56.294;14.480;2023-06-22T04:19:35;0.30;;;0.30;;
12689;SDS011;6409;56.294;14.480;2023-06-22T04:22:02;0.30;;;0.30;;
12689;SDS011;6409;56.294;14.480;2023-06-22T04:24:29;0.30;;;0.30;;
12689;SDS011;6409;56.294;14.480;2023-06-22T04:26:56;0.30;;;0.30;;
12689;SDS011;6409;56.294;14.480;2023-06-22T04:29:25;0.30;;;0.30;;
12689;SDS011;6409;56.294;14.480;2023-06-22T04:31:54;0.30;;;0.30;;
12689;SDS011;6409;56.294;14.480;2023-06-22T04:34:22;0.30;;;0.30;;
12689;SDS011;6409;56.294;14.480;2023-06-22T04:36:52;0.20;;;0.20;;
12689;SDS011;6409;56.294;14.480;2023-06-22T04:39:19;0.30;;;0.30;;
12689;SDS011;6409;56.294;14.480;2023-06-22T04:41:47;0.30;;;0.30;;
12689;SDS011;6409;56.294;14.480;2023-06-22T04:44:14;0.30;;;0.30;;
12689;SDS011;6409;56.294;14.480;2023-06-22T04:46:48;0.30;;;0.30;;
12689;SDS011;6409;56.294;14.480;2023-06-22T04:49:19;0.30;;;0.30;;
12689;SDS011;6409;56.294;14.480;2023-06-22T04:51:46;0.30;;;0.30;;
12689;SDS011;6409;56.294;14.480;2023-06-22T04:54:14;0.30;;;0.30;;
12689;SDS011;6409;56.294;14.480;2023-06-22T04:56:41;0.30;;;0.30;;
12689;SDS011;6409;56.294;14.480;2023-06-22T04:59:08;0.30;;;0.30;;
12689;SDS011;6409;56.294;14.480;2023-06-22T05:01:38;0.30;;;0.30;;
12689;SDS011;6409;56.294;14.480;2023-06-22T05:04:05;0.30;;;0.30;;
12689;SDS011;6409;56.294;14.480;2023-06-22T05:06:32;0.30;;;0.30;;
12689;SDS011;6409;56.294;14.480;2023-06-22T05:08:59;0.50;;;0.50;;
12689;SDS011;6409;56.294;14.480;2023-06-22T05:11:29;0.60;;;0.60;;
12689;SDS011;6409;56.294;14.480;2023-06-22T05:13:56;0.50;;;0.50;;
12689;SDS011;6409;56.294;14.480;2023-06-22T05:16:22;0.50;;;0.50;;
12689;SDS011;6409;56.294;14.480;2023-06-22T05:18:51;0.50;;;0.50;;
12689;SDS011;6409;56.294;14.480;2023-06-22T05:21:21;0.60;;;0.60;;
12689;SDS011;6409;56.294;14.480;2023-06-22T05:23:49;0.70;;;0.70;;
12689;SDS011;6409;56.294;14.480;2023-06-22T05:26:16;0.70;;;0.70;;
12689;SDS011;6409;56.294;14.480;2023-06-22T05:28:44;0.40;;;0.40;;
12689;SDS011;6409;56.294;14.480;2023-06-22T05:31:12;0.40;;;0.40;;
12689;SDS011;6409;56.294;14.480;2023-06-22T05:33:39;0.40;;;0.40;;
12689;SDS011;6409;56.294;14.480;2023-06-22T05:36:06;0.40;;;0.40;;
12689;SDS011;6409;56.294;14.480;2023-06-22T05:38:33;0.40;;;0.40;;
12689;SDS011;6409;56.294;14.480;2023-06-22T05:41:01;0.40;;;0.40;;
12689;SDS011;6409;56.294;14.480;2023-06-22T05:43:27;0.40;;;0.40;;
12689;SDS011;6409;56.294;14.480;2023-06-22T05:45:56;0.50;;;0.50;;
12689;SDS011;6409;56.294;14.480;2023-06-22T05:48:24;0.50;;;0.50;;
12689;SDS011;6409;56.294;14.480;2023-06-22T05:50:52;0.50;;;0.50;;
12689;SDS011;6409;56.294;14.480;2023-06-22T05:53:18;0.50;;;0.50;;
12689;SDS011;6409;56.294;14.480;2023-06-22T05:55:46;0.60;;;0.60;;
12689;SDS011;6409;56.294;14.480;2023-06-22T05:58:13;0.60;;;0.60;;
12689;SDS011;6409;56.294;14.480;2023-06-22T06:00:40;0.50;;;0.50;;
12689;SDS011;6409;56.294;14.480;2023-06-22T06:03:09;0.50;;;0.50;;
12689;SDS011;6409;56.294;14.480;2023-06-22T06:05:36;0.40;;;0.40;;
12689;SDS011;6409;56.294;14.480;2023-06-22T06:08:04;0.40;;;0.40;;
12689;SDS011;6409;56.294;14.480;2023-06-22T06:10:32;0.47;;;0.47;;
12689;SDS011;6409;56.294;14.480;2023-06-22T06:12:59;0.50;;;0.50;;
12689;SDS011;6409;56.294;14.480;2023-06-22T06:15:29;0.50;;;0.50;;
12689;SDS011;6409;56.294;14.480;2023-06-22T06:17:56;0.53;;;0.53;;
12689;SDS011;6409;56.294;14.480;2023-06-22T06:20:24;0.60;;;0.60;;
12689;SDS011;6409;56.294;14.480;2023-06-22T06:22:53;0.50;;;0.50;;
12689;SDS011;6409;56.294;14.480;2023-06-22T06:25:20;0.60;;;0.60;;
12689;SDS011;6409;56.294;14.480;2023-06-22T06:27:47;0.60;;;0.60;;
12689;SDS011;6409;56.294;14.480;2023-06-22T06:30:15;0.60;;;0.60;;
12689;SDS011;6409;56.294;14.480;2023-06-22T06:32:45;0.60;;;0.60;;
12689;SDS011;6409;56.294;14.480;2023-06-22T06:35:13;0.50;;;0.50;;
12689;SDS011;6409;56.294;14.480;2023-06-22T06:37:42;0.50;;;0.50;;
12689;SDS011;6409;56.294;14.480;2023-06-22T06:40:11;0.50;;;0.50;;
12689;SDS011;6409;56.294;14.480;2023-06-22T06:42:38;0.50;;;0.50;;
12689;SDS011;6409;56.294;14.480;2023-06-22T06:45:07;0.60;;;0.60;;
12689;SDS011;6409;56.294;14.480;2023-06-22T06:47:34;0.60;;;0.60;;
12689;SDS011;6409;56.294;14.480;2023-06-22T06:50:02;0.70;;;0.70;;
12689;SDS011;6409;56.294;14.480;2023-06-22T06:52:29;0.70;;;0.70;;
12689;SDS011;6409;56.294;14.480;2023-06-22T06:54:58;0.70;;;0.70;;
12689;SDS011;6409;56.294;14.480;2023-06-22T06:57:25;0.80;;;0.80;;
12689;SDS011;6409;56.294;14.480;2023-06-22T06:59:53;0.80;;;0.80;;
12689;SDS011;6409;56.294;14.480;2023-06-22T07:02:21;0.80;;;0.80;;
12689;SDS011;6409;56.294;14.480;2023-06-22T07:04:48;0.80;;;0.80;;
12689;SDS011;6409;56.294;14.480;2023-06-22T07:07:16;0.70;;;0.70;;
12689;SDS011;6409;56.294;14.480;2023-06-22T07:09:43;0.70;;;0.70;;
12689;SDS011;6409;56.294;14.480;2023-06-22T07:12:11;0.70;;;0.70;;
12689;SDS011;6409;56.294;14.480;2023-06-22T07:14:38;0.70;;;0.70;;
12689;SDS011;6409;56.294;14.480;2023-06-22T07:17:05;0.80;;;0.80;;
12689;SDS011;6409;56.294;14.480;2023-06-22T07:19:32;0.90;;;0.90;;
12689;SDS011;6409;56.294;14.480;2023-06-22T07:21:59;0.80;;;0.80;;
12689;SDS011;6409;56.294;14.480;2023-06-22T07:24:26;0.80;;;0.80;;
12689;SDS011;6409;56.294;14.480;2023-06-22T07:26:53;0.80;;;0.80;;
12689;SDS011;6409;56.294;14.480;2023-06-22T07:29:25;0.80;;;0.80;;
12689;SDS011;6409;56.294;14.480;2023-06-22T07:31:52;0.80;;;0.80;;
12689;SDS011;6409;56.294;14.480;2023-06-22T07:34:21;0.80;;;0.80;;
12689;SDS011;6409;56.294;14.480;2023-06-22T07:36:48;0.70;;;0.70;;
12689;SDS011;6409;56.294;14.480;2023-06-22T07:39:15;0.80;;;0.80;;
12689;SDS011;6409;56.294;14.480;2023-06-22T07:41:42;0.70;;;0.70;;
12689;SDS011;6409;56.294;14.480;2023-06-22T07:44:12;0.80;;;0.80;;
12689;SDS011;6409;56.294;14.480;2023-06-22T07:46:40;0.80;;;0.80;;
12689;SDS011;6409;56.294;14.480;2023-06-22T07:49:07;0.90;;;0.90;;
12689;SDS011;6409;56.294;14.480;2023-06-22T07:51:34;0.90;;;0.90;;
12689;SDS011;6409;56.294;14.480;2023-06-22T07:54:01;0.90;;;0.90;;
12689;SDS011;6409;56.294;14.480;2023-06-22T07:56:28;0.90;;;0.90;;
12689;SDS011;6409;56.294;14.480;2023-06-22T07:58:55;0.90;;;0.90;;
12689;SDS011;6409;56.294;14.480;2023-06-22T08:01:24;0.90;;;0.90;;
12689;SDS011;6409;56.294;14.480;2023-06-22T08:03:52;0.80;;;0.80;;
12689;SDS011;6409;56.294;14.480;2023-06-22T08:06:19;0.80;;;0.80;;
12689;SDS011;6409;56.294;14.480;2023-06-22T08:08:46;0.80;;;0.80;;
12689;SDS011;6409;56.294;14.480;2023-06-22T08:11:14;0.82;;;0.82;;
12689;SDS011;6409;56.294;14.480;2023-06-22T08:13:41;1.10;;;1.10;;
12689;SDS011;6409;56.294;14.480;2023-06-22T08:16:08;1.10;;;1.10;;
12689;SDS011;6409;56.294;14.480;2023-06-22T08:18:35;1.10;;;1.10;;
12689;SDS011;6409;56.294;14.480;2023-06-22T08:21:03;1.10;;;1.10;;
12689;SDS011;6409;56.294;14.480;2023-06-22T08:23:30;1.13;;;1.13;;
12689;SDS011;6409;56.294;14.480;2023-06-22T08:25:57;1.30;;;1.30;;
12689;SDS011;6409;56.294;14.480;2023-06-22T08:28:24;1.40;;;1.40;;
12689;SDS011;6409;56.294;14.480;2023-06-22T08:30:51;1.40;;;1.40;;
12689;SDS011;6409;56.294;14.480;2023-06-22T08:33:18;1.00;;;1.00;;
12689;SDS011;6409;56.294;14.480;2023-06-22T08:35:45;1.00;;;1.00;;
12689;SDS011;6409;56.294;14.480;2023-06-22T08:38:13;1.10;;;1.10;;
12689;SDS011;6409;56.294;14.480;2023-06-22T08:40:42;1.10;;;1.10;;
12689;SDS011;6409;56.294;14.480;2023-06-22T08:43:09;1.00;;;1.00;;
12689;SDS011;6409;56.294;14.480;2023-06-22T08:45:36;1.00;;;1.00;;
12689;SDS011;6409;56.294;14.480;2023-06-22T08:48:03;1.00;;;1.00;;
12689;SDS011;6409;56.294;14.480;2023-06-22T08:50:31;1.05;;;1.05;;
12689;SDS011;6409;56.294;14.480;2023-06-22T08:52:58;1.10;;;1.10;;
12689;SDS011;6409;56.294;14.480;2023-06-22T08:55:26;1.00;;;1.00;;
12689;SDS011;6409;56.294;14.480;2023-06-22T08:57:53;1.10;;;1.10;;
12689;SDS011;6409;56.294;14.480;2023-06-22T09:00:20;1.02;;;1.02;;
12689;SDS011;6409;56.294;14.480;2023-06-22T09:02:47;1.00;;;1.00;;
12689;SDS011;6409;56.294;14.480;2023-06-22T09:05:14;1.00;;;1.00;;
12689;SDS011;6409;56.294;14.480;2023-06-22T09:07:42;1.10;;;1.10;;
12689;SDS011;6409;56.294;14.480;2023-06-22T09:10:09;1.10;;;1.10;;
12689;SDS011;6409;56.294;14.480;2023-06-22T09:12:39;1.10;;;1.10;;
12689;SDS011;6409;56.294;14.480;2023-06-22T09:15:06;1.20;;;1.20;;
12689;SDS011;6409;56.294;14.480;2023-06-22T09:17:33;1.10;;;1.10;;
12689;SDS011;6409;56.294;14.480;2023-06-22T09:20:02;1.30;;;1.30;;
12689;SDS011;6409;56.294;14.480;2023-06-22T09:22:30;1.30;;;1.30;;
12689;SDS011;6409;56.294;14.480;2023-06-22T09:24:58;1.30;;;1.30;;
12689;SDS011;6409;56.294;14.480;2023-06-22T09:27:26;1.30;;;1.30;;
12689;SDS011;6409;56.294;14.480;2023-06-22T09:29:54;1.30;;;1.30;;
12689;SDS011;6409;56.294;14.480;2023-06-22T09:32:23;1.40;;;1.40;;
12689;SDS011;6409;56.294;14.480;2023-06-22T09:34:50;1.58;;;1.58;;
12689;SDS011;6409;56.294;14.480;2023-06-22T09:37:18;1.60;;;1.60;;
12689;SDS011;6409;56.294;14.480;2023-06-22T09:39:45;1.50;;;1.50;;
12689;SDS011;6409;56.294;14.480;2023-06-22T09:42:11;1.50;;;1.50;;
12689;SDS011;6409;56.294;14.480;2023-06-22T09:44:39;1.50;;;1.50;;
12689;SDS011;6409;56.294;14.480;2023-06-22T09:47:07;1.50;;;1.50;;
12689;SDS011;6409;56.294;14.480;2023-06-22T09:49:34;1.60;;;1.60;;
12689;SDS011;6409;56.294;14.480;2023-06-22T09:52:01;1.50;;;1.50;;
12689;SDS011;6409;56.294;14.480;2023-06-22T09:54:28;1.70;;;1.70;;
12689;SDS011;6409;56.294;14.480;2023-06-22T09:56:55;1.70;;;1.70;;
12689;SDS011;6409;56.294;14.480;2023-06-22T09:59:22;1.55;;;1.55;;
12689;SDS011;6409;56.294;14.480;2023-06-22T10:01:49;1.70;;;1.70;;
12689;SDS011;6409;56.294;14.480;2023-06-22T10:04:17;1.50;;;1.50;;
12689;SDS011;6409;56.294;14.480;2023-06-22T10:06:44;1.70;;;1.70;;
12689;SDS011;6409;56.294;14.480;2023-06-22T10:09:11;1.70;;;1.70;;
12689;SDS011;6409;56.294;14.480;2023-06-22T10:11:38;1.60;;;1.60;;
12689;SDS011;6409;56.294;14.480;2023-06-22T10:14:06;1.60;;;1.60;;
12689;SDS011;6409;56.294;14.480;2023-06-22T10:16:33;1.67;;;1.67;;
12689;SDS011;6409;56.294;14.480;2023-06-22T10:19:02;1.70;;;1.70;;
12689;SDS011;6409;56.294;14.480;2023-06-22T10:21:30;1.60;;;1.60;;
12689;SDS011;6409;56.294;14.480;2023-06-22T10:23:57;1.60;;;1.60;;
12689;SDS011;6409;56.294;14.480;2023-06-22T10:26:30;1.60;;;1.60;;
12689;SDS011;6409;56.294;14.480;2023-06-22T10:28:57;1.60;;;1.60;;
12689;SDS011;6409;56.294;14.480;2023-06-22T10:31:24;1.50;;;1.50;;
12689;SDS011;6409;56.294;14.480;2023-06-22T10:33:52;1.50;;;1.50;;
12689;SDS011;6409;56.294;14.480;2023-06-22T10:36:19;1.40;;;1.40;;
12689;SDS011;6409;56.294;14.480;2023-06-22T10:38:48;1.70;;;1.70;;
12689;SDS011;6409;56.294;14.480;2023-06-22T10:41:15;1.60;;;1.60;;
12689;SDS011;6409;56.294;14.480;2023-06-22T10:43:42;1.60;;;1.60;;
12689;SDS011;6409;56.294;14.480;2023-06-22T10:46:09;1.60;;;1.60;;
12689;SDS011;6409;56.294;14.480;2023-06-22T10:48:36;1.60;;;1.60;;
12689;SDS011;6409;56.294;14.480;2023-06-22T10:51:02;1.70;;;1.70;;
12689;SDS011;6409;56.294;14.480;2023-06-22T10:53:29;1.40;;;1.40;;
12689;SDS011;6409;56.294;14.480;2023-06-22T10:55:58;1.60;;;1.60;;
12689;SDS011;6409;56.294;14.480;2023-06-22T10:58:24;1.60;;;1.60;;
12689;SDS011;6409;56.294;14.480;2023-06-22T11:00:51;1.60;;;1.60;;
12689;SDS011;6409;56.294;14.480;2023-06-22T11:03:18;1.50;;;1.50;;
12689;SDS011;6409;56.294;14.480;2023-06-22T11:05:45;1.60;;;1.60;;
12689;SDS011;6409;56.294;14.480;2023-06-22T11:08:13;1.75;;;1.75;;
12689;SDS011;6409;56.294;14.480;2023-06-22T11:10:39;1.70;;;1.70;;
12689;SDS011;6409;56.294;14.480;2023-06-22T11:13:08;1.60;;;1.60;;
12689;SDS011;6409;56.294;14.480;2023-06-22T11:15:35;1.70;;;1.70;;
12689;SDS011;6409;56.294;14.480;2023-06-22T11:18:02;1.80;;;1.80;;
12689;SDS011;6409;56.294;14.480;2023-06-22T11:20:30;1.90;;;1.90;;
12689;SDS011;6409;56.294;14.480;2023-06-22T11:22:59;1.98;;;1.98;;
12689;SDS011;6409;56.294;14.480;2023-06-22T11:25:26;2.00;;;2.00;;
12689;SDS011;6409;56.294;14.480;2023-06-22T11:27:53;2.08;;;2.08;;
12689;SDS011;6409;56.294;14.480;2023-06-22T11:30:22;2.00;;;2.00;;
12689;SDS011;6409;56.294;14.480;2023-06-22T11:32:49;2.10;;;2.10;;
12689;SDS011;6409;56.294;14.480;2023-06-22T11:35:16;2.22;;;2.22;;
12689;SDS011;6409;56.294;14.480;2023-06-22T11:37:43;1.60;;;1.60;;
12689;SDS011;6409;56.294;14.480;2023-06-22T11:40:10;1.60;;;1.60;;
12689;SDS011;6409;56.294;14.480;2023-06-22T11:42:37;1.60;;;1.60;;
12689;SDS011;6409;56.294;14.480;2023-06-22T11:45:05;1.60;;;1.60;;
12689;SDS011;6409;56.294;14.480;2023-06-22T11:47:34;1.50;;;1.50;;
12689;SDS011;6409;56.294;14.480;2023-06-22T11:50:01;1.70;;;1.70;;
12689;SDS011;6409;56.294;14.480;2023-06-22T11:52:28;1.60;;;1.60;;
12689;SDS011;6409;56.294;14.480;2023-06-22T11:54:55;1.63;;;1.63;;
12689;SDS011;6409;56.294;14.480;2023-06-22T11:57:22;1.70;;;1.70;;
12689;SDS011;6409;56.294;14.480;2023-06-22T11:59:48;1.60;;;1.60;;
12689;SDS011;6409;56.294;14.480;2023-06-22T12:02:15;1.80;;;1.80;;
12689;SDS011;6409;56.294;14.480;2023-06-22T12:04:44;1.70;;;1.70;;
12689;SDS011;6409;56.294;14.480;2023-06-22T12:07:11;1.67;;;1.67;;
12689;SDS011;6409;56.294;14.480;2023-06-22T12:09:38;1.60;;;1.60;;
12689;SDS011;6409;56.294;14.480;2023-06-22T12:12:05;1.65;;;1.65;;
12689;SDS011;6409;56.294;14.480;2023-06-22T12:14:32;1.60;;;1.60;;
12689;SDS011;6409;56.294;14.480;2023-06-22T12:16:59;1.60;;;1.60;;
12689;SDS011;6409;56.294;14.480;2023-06-22T12:19:26;1.80;;;1.80;;
12689;SDS011;6409;56.294;14.480;2023-06-22T12:21:54;1.60;;;1.60;;
12689;SDS011;6409;56.294;14.480;2023-06-22T12:24:21;1.80;;;1.80;;
12689;SDS011;6409;56.294;14.480;2023-06-22T12:26:49;1.80;;;1.80;;
12689;SDS011;6409;56.294;14.480;2023-06-22T12:29:16;1.80;;;1.80;;
12689;SDS011;6409;56.294;14.480;2023-06-22T12:31:42;1.80;;;1.80;;
12689;SDS011;6409;56.294;14.480;2023-06-22T12:34:09;1.80;;;1.80;;
12689;SDS011;6409;56.294;14.480;2023-06-22T12:36:36;1.70;;;1.70;;
12689;SDS011;6409;56.294;14.480;2023-06-22T12:39:04;1.70;;;1.70;;
12689;SDS011;6409;56.294;14.480;2023-06-22T12:41:32;1.90;;;1.90;;
12689;SDS011;6409;56.294;14.480;2023-06-22T12:43:59;1.80;;;1.80;;
12689;SDS011;6409;56.294;14.480;2023-06-22T12:46:26;1.80;;;1.80;;
12689;SDS011;6409;56.294;14.480;2023-06-22T12:48:53;1.80;;;1.80;;
12689;SDS011;6409;56.294;14.480;2023-06-22T12:51:20;1.80;;;1.80;;
12689;SDS011;6409;56.294;14.480;2023-06-22T12:53:48;1.80;;;1.80;;
12689;SDS011;6409;56.294;14.480;2023-06-22T12:56:16;1.92;;;1.92;;
12689;SDS011;6409;56.294;14.480;2023-06-22T12:58:43;1.90;;;1.90;;
12689;SDS011;6409;56.294;14.480;2023-06-22T13:01:10;2.10;;;2.10;;
12689;SDS011;6409;56.294;14.480;2023-06-22T13:03:37;1.80;;;1.80;;
12689;SDS011;6409;56.294;14.480;2023-06-22T13:06:03;1.90;;;1.90;;
12689;SDS011;6409;56.294;14.480;2023-06-22T13:08:30;1.90;;;1.90;;
12689;SDS011;6409;56.294;14.480;2023-06-22T13:10:57;1.90;;;1.90;;
12689;SDS011;6409;56.294;14.480;2023-06-22T13:13:26;1.90;;;1.90;;
12689;SDS011;6409;56.294;14.480;2023-06-22T13:15:53;1.85;;;1.85;;
12689;SDS011;6409;56.294;14.480;2023-06-22T13:18:20;1.98;;;1.98;;
12689;SDS011;6409;56.294;14.480;2023-06-22T13:20:46;2.00;;;2.00;;
12689;SDS011;6409;56.294;14.480;2023-06-22T13:23:13;1.90;;;1.90;;
12689;SDS011;6409;56.294;14.480;2023-06-22T13:25:40;2.00;;;2.00;;
12689;SDS011;6409;56.294;14.480;2023-06-22T13:28:07;2.00;;;2.00;;
12689;SDS011;6409;56.294;14.480;2023-06-22T13:30:37;1.90;;;1.90;;
12689;SDS011;6409;56.294;14.480;2023-06-22T13:33:04;1.90;;;1.90;;
12689;SDS011;6409;56.294;14.480;2023-06-22T13:35:31;1.98;;;1.98;;
12689;SDS011;6409;56.294;14.480;2023-06-22T13:37:57;1.90;;;1.90;;
12689;SDS011;6409;56.294;14.480;2023-06-22T13:40:24;2.00;;;2.00;;
12689;SDS011;6409;56.294;14.480;2023-06-22T13:42:51;2.00;;;2.00;;
12689;SDS011;6409;56.294;14.480;2023-06-22T13:45:18;1.90;;;1.90;;
12689;SDS011;6409;56.294;14.480;2023-06-22T13:47:46;1.90;;;1.90;;
12689;SDS011;6409;56.294;14.480;2023-06-22T13:50:13;1.90;;;1.90;;
12689;SDS011;6409;56.294;14.480;2023-06-22T13:52:41;1.90;;;1.90;;
12689;SDS011;6409;56.294;14.480;2023-06-22T13:55:09;1.80;;;1.80;;
12689;SDS011;6409;56.294;14.480;2023-06-22T13:57:36;1.75;;;1.75;;
12689;SDS011;6409;56.294;14.480;2023-06-22T14:00:03;1.90;;;1.90;;
12689;SDS011;6409;56.294;14.480;2023-06-22T14:02:31;1.70;;;1.70;;
12689;SDS011;6409;56.294;14.480;2023-06-22T14:04:59;1.70;;;1.70;;
12689;SDS011;6409;56.294;14.480;2023-06-22T14:07:27;1.75;;;1.75;;
12689;SDS011;6409;56.294;14.480;2023-06-22T14:09:54;1.80;;;1.80;;
12689;SDS011;6409;56.294;14.480;2023-06-22T14:12:21;1.73;;;1.73;;
12689;SDS011;6409;56.294;14.480;2023-06-22T14:14:48;1.70;;;1.70;;
12689;SDS011;6409;56.294;14.480;2023-06-22T14:17:15;1.73;;;1.73;;
12689;SDS011;6409;56.294;14.480;2023-06-22T14:19:42;1.80;;;1.80;;
12689;SDS011;6409;56.294;14.480;2023-06-22T14:22:10;2.20;;;2.20;;
12689;SDS011;6409;56.294;14.480;2023-06-22T14:24:37;2.20;;;2.20;;
12689;SDS011;6409;56.294;14.480;2023-06-22T14:27:04;2.17;;;2.17;;
12689;SDS011;6409;56.294;14.480;2023-06-22T14:29:33;2.10;;;2.10;;
12689;SDS011;6409;56.294;14.480;2023-06-22T14:32:00;2.20;;;2.20;;
12689;SDS011;6409;56.294;14.480;2023-06-22T14:34:27;2.20;;;2.20;;
12689;SDS011;6409;56.294;14.480;2023-06-22T14:36:54;2.40;;;2.30;;
12689;SDS011;6409;56.294;14.480;2023-06-22T14:39:22;2.40;;;2.30;;
12689;SDS011;6409;56.294;14.480;2023-06-22T14:41:49;1.80;;;1.80;;
12689;SDS011;6409;56.294;14.480;2023-06-22T14:44:16;1.80;;;1.80;;
12689;SDS011;6409;56.294;14.480;2023-06-22T14:46:43;1.70;;;1.70;;
12689;SDS011;6409;56.294;14.480;2023-06-22T14:49:10;1.70;;;1.70;;
12689;SDS011;6409;56.294;14.480;2023-06-22T14:51:36;1.80;;;1.80;;